sensor_id;sensor_type;location;lat;lon;timestamp;pressure;altitude;pressure_sealevel;temperature;humidity
69171;BME280;56279;47.902;12.308;2022-08-02T00:01:59;95633.44;;;19.90;72.80
69171;BME280;56279;47.902;12.308;2022-08-02T00:04:00;95632.19;;;19.88;73.24
69171;BME280;56279;47.902;12.308;2022-08-02T00:06:02;95639.31;;;19.84;73.47
69171;BME280;56279;47.902;12.308;2022-08-02T00:08:03;95625.00;;;19.80;72.97
69171;BME280;56279;47.902;12.308;2022-08-02T00:10:06;95622.50;;;19.75;72.83
69171;BME280;56279;47.902;12.308;2022-08-02T00:12:07;95625.53;;;19.73;72.07
69171;BME280;56279;47.902;12.308;2022-08-02T00:14:09;95621.59;;;19.71;72.35
69171;BME280;56279;47.902;12.308;2022-08-02T00:16:12;95615.81;;;19.69;72.15
69171;BME280;56279;47.902;12.308;2022-08-02T00:18:13;95603.84;;;19.66;73.01
69171;BME280;56279;47.902;12.308;2022-08-02T00:20:15;95593.78;;;19.63;72.99
69171;BME280;56279;47.902;12.308;2022-08-02T00:22:16;95597.88;;;19.61;73.46
69171;BME280;56279;47.902;12.308;2022-08-02T00:24:18;95587.84;;;19.58;73.39
69171;BME280;56279;47.902;12.308;2022-08-02T00:26:19;95592.72;;;19.56;73.72
69171;BME280;56279;47.902;12.308;2022-08-02T00:28:21;95596.88;;;19.53;74.23
69171;BME280;56279;47.902;12.308;2022-08-02T00:30:23;95596.38;;;19.51;73.66
69171;BME280;56279;47.902;12.308;2022-08-02T00:32:24;95606.31;;;19.51;73.06
69171;BME280;56279;47.902;12.308;2022-08-02T00:34:25;95593.69;;;19.51;73.22
69171;BME280;56279;47.902;12.308;2022-08-02T00:36:26;95596.38;;;19.51;73.13
69171;BME280;56279;47.902;12.308;2022-08-02T00:38:28;95597.97;;;19.52;73.49
69171;BME280;56279;47.902;12.308;2022-08-02T00:40:29;95601.72;;;19.51;73.41
69171;BME280;56279;47.902;12.308;2022-08-02T00:42:31;95592.94;;;19.51;73.96
69171;BME280;56279;47.902;12.308;2022-08-02T00:44:32;95598.28;;;19.51;74.44
69171;BME280;56279;47.902;12.308;2022-08-02T00:46:33;95592.94;;;19.51;73.99
69171;BME280;56279;47.902;12.308;2022-08-02T00:48:35;95596.88;;;19.53;74.10
69171;BME280;56279;47.902;12.308;2022-08-02T00:50:37;95594.94;;;19.54;74.72
69171;BME280;56279;47.902;12.308;2022-08-02T00:52:38;95589.28;;;19.55;74.43
69171;BME280;56279;47.902;12.308;2022-08-02T00:54:39;95589.59;;;19.54;74.09
69171;BME280;56279;47.902;12.308;2022-08-02T00:56:41;95591.50;;;19.53;74.21
69171;BME280;56279;47.902;12.308;2022-08-02T00:58:42;95594.94;;;19.54;73.88
69171;BME280;56279;47.902;12.308;2022-08-02T01:00:43;95592.28;;;19.54;73.33
69171;BME280;56279;47.902;12.308;2022-08-02T01:02:45;95600.00;;;19.55;73.64
69171;BME280;56279;47.902;12.308;2022-08-02T01:04:46;95590.84;;;19.56;73.71
69171;BME280;56279;47.902;12.308;2022-08-02T01:06:48;95592.41;;;19.57;73.80
69171;BME280;56279;47.902;12.308;2022-08-02T01:08:49;95591.97;;;19.55;74.03
69171;BME280;56279;47.902;12.308;2022-08-02T01:10:50;95599.19;;;19.55;74.03
69171;BME280;56279;47.902;12.308;2022-08-02T01:12:51;95602.66;;;19.55;74.05
69171;BME280;56279;47.902;12.308;2022-08-02T01:14:55;95605.81;;;19.57;74.12
69171;BME280;56279;47.902;12.308;2022-08-02T01:17:07;95608.78;;;19.56;74.34
69171;BME280;56279;47.902;12.308;2022-08-02T01:22:11;95602.53;;;19.52;74.25
69171;BME280;56279;47.902;12.308;2022-08-02T01:29:00;95592.47;;;19.49;73.49
69171;BME280;56279;47.902;12.308;2022-08-02T01:33:07;95592.34;;;19.45;73.98
69171;BME280;56279;47.902;12.308;2022-08-02T01:35:16;95591.88;;;19.43;74.18
69171;BME280;56279;47.902;12.308;2022-08-02T01:39:30;95598.34;;;19.42;73.71
69171;BME280;56279;47.902;12.308;2022-08-02T01:41:34;95595.19;;;19.40;73.63
69171;BME280;56279;47.902;12.308;2022-08-02T01:43:37;95598.22;;;19.39;73.12
69171;BME280;56279;47.902;12.308;2022-08-02T01:45:41;95600.91;;;19.39;73.15
69171;BME280;56279;47.902;12.308;2022-08-02T01:47:43;95597.44;;;19.38;73.16
69171;BME280;56279;47.902;12.308;2022-08-02T01:49:49;95596.63;;;19.38;73.24
69171;BME280;56279;47.902;12.308;2022-08-02T01:51:52;95601.69;;;19.39;73.04
69171;BME280;56279;47.902;12.308;2022-08-02T01:54:14;95594.41;;;19.40;72.79
69171;BME280;56279;47.902;12.308;2022-08-02T01:56:18;95590.63;;;19.41;72.77
69171;BME280;56279;47.902;12.308;2022-08-02T01:58:23;95595.19;;;19.40;72.45
69171;BME280;56279;47.902;12.308;2022-08-02T02:00:29;95591.28;;;19.38;72.98
69171;BME280;56279;47.902;12.308;2022-08-02T02:02:33;95588.47;;;19.34;72.40
69171;BME280;56279;47.902;12.308;2022-08-02T02:04:37;95589.88;;;19.31;72.56
69171;BME280;56279;47.902;12.308;2022-08-02T02:06:41;95583.63;;;19.27;72.63
69171;BME280;56279;47.902;12.308;2022-08-02T02:08:43;95584.25;;;19.24;72.43
69171;BME280;56279;47.902;12.308;2022-08-02T02:10:45;95583.47;;;19.24;72.28
69171;BME280;56279;47.902;12.308;2022-08-02T02:12:49;95583.03;;;19.22;72.59
69171;BME280;56279;47.902;12.308;2022-08-02T02:14:52;95587.59;;;19.21;72.14
69171;BME280;56279;47.902;12.308;2022-08-02T02:16:55;95585.88;;;19.17;72.28
69171;BME280;56279;47.902;12.308;2022-08-02T02:19:00;95589.19;;;19.14;72.30
69171;BME280;56279;47.902;12.308;2022-08-02T02:21:03;95590.16;;;19.09;72.76
69171;BME280;56279;47.902;12.308;2022-08-02T02:23:05;95591.28;;;19.08;72.50
69171;BME280;56279;47.902;12.308;2022-08-02T02:25:08;95591.94;;;19.05;72.34
69171;BME280;56279;47.902;12.308;2022-08-02T02:27:11;95591.94;;;19.05;72.77
69171;BME280;56279;47.902;12.308;2022-08-02T02:29:13;95593.03;;;19.04;72.68
69171;BME280;56279;47.902;12.308;2022-08-02T02:31:17;95598.38;;;19.04;72.14
69171;BME280;56279;47.902;12.308;2022-08-02T02:33:21;95606.88;;;19.06;72.34
69171;BME280;56279;47.902;12.308;2022-08-02T02:35:26;95596.19;;;19.06;72.57
69171;BME280;56279;47.902;12.308;2022-08-02T02:37:29;95609.56;;;19.06;72.43
69171;BME280;56279;47.902;12.308;2022-08-02T02:39:33;95600.75;;;19.06;72.51
69171;BME280;56279;47.902;12.308;2022-08-02T02:41:37;95597.63;;;19.04;72.84
69171;BME280;56279;47.902;12.308;2022-08-02T02:43:40;95604.41;;;19.01;72.95
69171;BME280;56279;47.902;12.308;2022-08-02T02:45:42;95617.31;;;18.99;72.97
69171;BME280;56279;47.902;12.308;2022-08-02T02:47:45;95603.78;;;18.96;73.12
69171;BME280;56279;47.902;12.308;2022-08-02T02:49:50;95612.94;;;18.95;73.28
69171;BME280;56279;47.902;12.308;2022-08-02T02:51:52;95608.66;;;18.94;73.56
69171;BME280;56279;47.902;12.308;2022-08-02T02:53:54;95613.41;;;18.88;73.80
69171;BME280;56279;47.902;12.308;2022-08-02T02:55:57;95610.59;;;18.85;74.09
69171;BME280;56279;47.902;12.308;2022-08-02T02:57:59;95618.00;;;18.79;74.64
69171;BME280;56279;47.902;12.308;2022-08-02T03:00:07;95618.19;;;18.74;75.03
69171;BME280;56279;47.902;12.308;2022-08-02T03:02:10;95613.81;;;18.70;74.93
69171;BME280;56279;47.902;12.308;2022-08-02T03:04:12;95602.19;;;18.66;74.92
69171;BME280;56279;47.902;12.308;2022-08-02T03:06:14;95611.50;;;18.59;75.47
69171;BME280;56279;47.902;12.308;2022-08-02T03:08:16;95602.41;;;18.52;75.87
69171;BME280;56279;47.902;12.308;2022-08-02T03:10:17;95608.69;;;18.47;76.04
69171;BME280;56279;47.902;12.308;2022-08-02T03:12:18;95608.50;;;18.44;76.55
69171;BME280;56279;47.902;12.308;2022-08-02T03:14:20;95607.91;;;18.38;76.39
69171;BME280;56279;47.902;12.308;2022-08-02T03:16:21;95610.13;;;18.36;76.37
69171;BME280;56279;47.902;12.308;2022-08-02T03:18:36;95611.84;;;18.32;76.43
69171;BME280;56279;47.902;12.308;2022-08-02T03:20:38;95610.59;;;18.30;76.40
69171;BME280;56279;47.902;12.308;2022-08-02T03:22:40;95606.19;;;18.25;76.75
69171;BME280;56279;47.902;12.308;2022-08-02T03:24:45;95611.06;;;18.23;76.54
69171;BME280;56279;47.902;12.308;2022-08-02T03:26:46;95618.97;;;18.20;76.65
69171;BME280;56279;47.902;12.308;2022-08-02T03:28:47;95614.25;;;18.17;76.82
69171;BME280;56279;47.902;12.308;2022-08-02T03:30:49;95611.09;;;18.15;76.90
69171;BME280;56279;47.902;12.308;2022-08-02T03:32:50;95619.13;;;18.15;76.58
69171;BME280;56279;47.902;12.308;2022-08-02T03:34:51;95613.31;;;18.13;76.79
69171;BME280;56279;47.902;12.308;2022-08-02T03:36:54;95608.25;;;18.11;76.46
69171;BME280;56279;47.902;12.308;2022-08-02T03:38:57;95608.25;;;18.11;76.74
69171;BME280;56279;47.902;12.308;2022-08-02T03:41:01;95619.59;;;18.08;76.75
69171;BME280;56279;47.902;12.308;2022-08-02T03:43:04;95616.75;;;18.05;76.89
69171;BME280;56279;47.902;12.308;2022-08-02T03:45:08;95623.22;;;18.04;76.92
69171;BME280;56279;47.902;12.308;2022-08-02T03:47:11;95617.88;;;18.04;77.04
69171;BME280;56279;47.902;12.308;2022-08-02T03:49:15;95618.63;;;18.04;76.83
69171;BME280;56279;47.902;12.308;2022-08-02T03:51:18;95619.13;;;18.06;77.03
69171;BME280;56279;47.902;12.308;2022-08-02T03:53:19;95621.81;;;18.06;76.82
69171;BME280;56279;47.902;12.308;2022-08-02T03:55:21;95612.22;;;18.05;76.98
69171;BME280;56279;47.902;12.308;2022-08-02T03:57:23;95619.75;;;18.03;76.87
69171;BME280;56279;47.902;12.308;2022-08-02T03:59:24;95616.31;;;18.03;77.07
69171;BME280;56279;47.902;12.308;2022-08-02T04:01:26;95613.31;;;18.04;76.99
69171;BME280;56279;47.902;12.308;2022-08-02T04:03:28;95612.22;;;18.05;77.11
69171;BME280;56279;47.902;12.308;2022-08-02T04:05:29;95616.75;;;18.05;76.50
69171;BME280;56279;47.902;12.308;2022-08-02T04:07:31;95621.63;;;18.03;76.88
69171;BME280;56279;47.902;12.308;2022-08-02T04:09:32;95624.94;;;18.00;76.95
69171;BME280;56279;47.902;12.308;2022-08-02T04:11:33;95625.25;;;17.98;77.00
69171;BME280;56279;47.902;12.308;2022-08-02T04:13:36;95631.69;;;17.97;77.06
69171;BME280;56279;47.902;12.308;2022-08-02T04:15:37;95629.34;;;17.95;77.02
69171;BME280;56279;47.902;12.308;2022-08-02T04:17:44;95627.47;;;17.96;76.98
69171;BME280;56279;47.902;12.308;2022-08-02T04:20:18;95626.66;;;17.95;76.97
69171;BME280;56279;47.902;12.308;2022-08-02T04:22:32;95637.34;;;17.95;76.99
69171;BME280;56279;47.902;12.308;2022-08-02T04:24:40;95635.97;;;17.89;77.32
69171;BME280;56279;47.902;12.308;2022-08-02T04:26:45;95643.31;;;17.84;77.47
69171;BME280;56279;47.902;12.308;2022-08-02T04:28:47;95646.16;;;17.79;77.59
69171;BME280;56279;47.902;12.308;2022-08-02T04:30:49;95640.00;;;17.78;77.49
69171;BME280;56279;47.902;12.308;2022-08-02T04:32:51;95633.28;;;17.81;77.60
69171;BME280;56279;47.902;12.308;2022-08-02T04:34:53;95637.19;;;17.83;77.53
69171;BME280;56279;47.902;12.308;2022-08-02T04:36:55;95635.16;;;17.89;77.77
69171;BME280;56279;47.902;12.308;2022-08-02T04:38:57;95629.97;;;17.92;77.54
69171;BME280;56279;47.902;12.308;2022-08-02T04:41:01;95632.47;;;17.98;77.41
69171;BME280;56279;47.902;12.308;2022-08-02T04:43:03;95648.19;;;18.08;77.60
69171;BME280;56279;47.902;12.308;2022-08-02T04:45:05;95647.88;;;18.18;76.83
69171;BME280;56279;47.902;12.308;2022-08-02T04:47:07;95654.13;;;18.30;76.97
69171;BME280;56279;47.902;12.308;2022-08-02T04:49:09;95654.59;;;18.41;76.72
69171;BME280;56279;47.902;12.308;2022-08-02T04:51:10;95650.50;;;18.52;76.66
69171;BME280;56279;47.902;12.308;2022-08-02T04:53:12;95656.63;;;18.61;76.50
69171;BME280;56279;47.902;12.308;2022-08-02T04:55:13;95658.16;;;18.71;76.32
69171;BME280;56279;47.902;12.308;2022-08-02T04:57:15;95663.00;;;18.77;76.39
69171;BME280;56279;47.902;12.308;2022-08-02T04:59:34;95661.75;;;18.83;75.96
69171;BME280;56279;47.902;12.308;2022-08-02T05:01:36;95670.38;;;18.89;75.92
69171;BME280;56279;47.902;12.308;2022-08-02T05:03:37;95662.34;;;18.89;76.16
69171;BME280;56279;47.902;12.308;2022-08-02T05:05:38;95657.44;;;18.91;76.45
69171;BME280;56279;47.902;12.308;2022-08-02T05:07:40;95663.25;;;18.93;76.78
69171;BME280;56279;47.902;12.308;2022-08-02T05:09:42;95661.84;;;18.95;76.02
69171;BME280;56279;47.902;12.308;2022-08-02T05:11:43;95660.75;;;18.96;76.13
69171;BME280;56279;47.902;12.308;2022-08-02T05:13:45;95657.44;;;18.99;76.36
69171;BME280;56279;47.902;12.308;2022-08-02T05:15:49;95651.41;;;19.02;76.61
69171;BME280;56279;47.902;12.308;2022-08-02T05:17:50;95658.81;;;19.05;76.30
69171;BME280;56279;47.902;12.308;2022-08-02T05:19:52;95663.84;;;19.07;76.64
69171;BME280;56279;47.902;12.308;2022-08-02T05:21:53;95667.31;;;19.07;76.01
69171;BME280;56279;47.902;12.308;2022-08-02T05:23:55;95663.53;;;19.08;76.33
69171;BME280;56279;47.902;12.308;2022-08-02T05:25:56;95667.75;;;19.09;76.07
69171;BME280;56279;47.902;12.308;2022-08-02T05:27:58;95675.63;;;19.14;76.34
69171;BME280;56279;47.902;12.308;2022-08-02T05:29:59;95673.69;;;19.23;76.37
69171;BME280;56279;47.902;12.308;2022-08-02T05:32:04;95671.75;;;19.32;75.46
69171;BME280;56279;47.902;12.308;2022-08-02T05:34:06;95673.75;;;19.44;74.83
69171;BME280;56279;47.902;12.308;2022-08-02T05:36:12;95671.97;;;19.57;74.81
69171;BME280;56279;47.902;12.308;2022-08-02T05:38:18;95680.06;;;19.69;74.15
69171;BME280;56279;47.902;12.308;2022-08-02T05:44:44;95687.66;;;20.08;72.16
69171;BME280;56279;47.902;12.308;2022-08-02T05:47:11;95683.16;;;20.21;72.01
69171;BME280;56279;47.902;12.308;2022-08-02T05:49:15;95675.06;;;20.29;71.69
69171;BME280;56279;47.902;12.308;2022-08-02T05:52:21;95681.91;;;20.39;71.75
69171;BME280;56279;47.902;12.308;2022-08-02T06:10:15;95680.19;;;21.24;70.68
69171;BME280;56279;47.902;12.308;2022-08-02T06:12:48;95679.41;;;21.35;70.32
69171;BME280;56279;47.902;12.308;2022-08-02T06:15:25;95679.63;;;21.43;69.49
69171;BME280;56279;47.902;12.308;2022-08-02T06:17:40;95682.22;;;21.51;69.71
69171;BME280;56279;47.902;12.308;2022-08-02T06:19:55;95676.94;;;21.55;69.83
69171;BME280;56279;47.902;12.308;2022-08-02T06:22:09;95677.53;;;21.60;69.64
69171;BME280;56279;47.902;12.308;2022-08-02T06:24:54;95681.44;;;21.63;69.68
69171;BME280;56279;47.902;12.308;2022-08-02T06:27:52;95688.50;;;21.55;69.22
69171;BME280;56279;47.902;12.308;2022-08-02T06:31:37;95679.09;;;21.49;68.50
69171;BME280;56279;47.902;12.308;2022-08-02T06:50:40;95683.59;;;20.76;68.22
69171;BME280;56279;47.902;12.308;2022-08-02T06:52:51;95681.75;;;20.68;68.77
69171;BME280;56279;47.902;12.308;2022-08-02T06:54:59;95685.00;;;20.61;68.87
69171;BME280;56279;47.902;12.308;2022-08-02T06:58:05;95679.38;;;20.54;68.72
69171;BME280;56279;47.902;12.308;2022-08-02T07:00:54;95676.91;;;20.49;68.21
69171;BME280;56279;47.902;12.308;2022-08-02T07:04:08;95680.13;;;20.43;68.23
69171;BME280;56279;47.902;12.308;2022-08-02T07:27:56;95683.81;;;20.83;68.84
69171;BME280;56279;47.902;12.308;2022-08-02T07:30:24;95678.91;;;20.85;68.70
69171;BME280;56279;47.902;12.308;2022-08-02T07:36:38;95680.00;;;20.84;68.58
69171;BME280;56279;47.902;12.308;2022-08-02T07:50:03;95677.81;;;20.86;68.06
69171;BME280;56279;47.902;12.308;2022-08-02T08:01:54;95675.00;;;20.95;68.38
69171;BME280;56279;47.902;12.308;2022-08-02T08:08:18;95672.38;;;21.07;67.73
69171;BME280;56279;47.902;12.308;2022-08-02T08:10:57;95679.44;;;21.11;67.50
69171;BME280;56279;47.902;12.308;2022-08-02T08:13:17;95674.16;;;21.15;67.14
69171;BME280;56279;47.902;12.308;2022-08-02T08:15:50;95680.75;;;21.17;67.34
69171;BME280;56279;47.902;12.308;2022-08-02T08:18:27;95677.41;;;21.20;66.62
69171;BME280;56279;47.902;12.308;2022-08-02T08:20:38;95685.78;;;21.31;66.13
69171;BME280;56279;47.902;12.308;2022-08-02T08:23:11;95686.47;;;21.40;65.46
69171;BME280;56279;47.902;12.308;2022-08-02T08:25:13;95684.78;;;21.48;65.10
69171;BME280;56279;47.902;12.308;2022-08-02T08:27:17;95679.31;;;21.56;64.49
69171;BME280;56279;47.902;12.308;2022-08-02T08:29:48;95685.34;;;21.65;63.88
69171;BME280;56279;47.902;12.308;2022-08-02T08:31:51;95684.66;;;21.68;63.44
69171;BME280;56279;47.902;12.308;2022-08-02T08:33:53;95680.19;;;21.72;63.45
69171;BME280;56279;47.902;12.308;2022-08-02T08:36:13;95677.28;;;21.77;63.22
69171;BME280;56279;47.902;12.308;2022-08-02T08:38:40;95678.72;;;21.87;63.04
69171;BME280;56279;47.902;12.308;2022-08-02T08:41:19;95677.47;;;21.96;63.11
69171;BME280;56279;47.902;12.308;2022-08-02T08:43:54;95677.69;;;22.03;62.69
69171;BME280;56279;47.902;12.308;2022-08-02T08:46:03;95683.97;;;22.08;62.65
69171;BME280;56279;47.902;12.308;2022-08-02T08:51:46;95678.19;;;22.21;61.88
69171;BME280;56279;47.902;12.308;2022-08-02T08:53:53;95688.38;;;22.28;61.94
69171;BME280;56279;47.902;12.308;2022-08-02T08:55:58;95688.31;;;22.40;61.37
69171;BME280;56279;47.902;12.308;2022-08-02T09:01:35;95678.88;;;22.74;60.49
69171;BME280;56279;47.902;12.308;2022-08-02T09:07:17;95680.91;;;23.08;59.90
69171;BME280;56279;47.902;12.308;2022-08-02T09:09:48;95686.19;;;23.20;59.63
69171;BME280;56279;47.902;12.308;2022-08-02T09:11:50;95685.31;;;23.31;58.88
69171;BME280;56279;47.902;12.308;2022-08-02T09:17:50;95677.59;;;23.61;58.62
69171;BME280;56279;47.902;12.308;2022-08-02T09:23:09;95685.75;;;23.65;57.42
69171;BME280;56279;47.902;12.308;2022-08-02T09:25:54;95675.94;;;23.72;57.78
69171;BME280;56279;47.902;12.308;2022-08-02T09:28:50;95678.84;;;23.83;57.62
69171;BME280;56279;47.902;12.308;2022-08-02T09:34:53;95678.94;;;23.86;56.23
69171;BME280;56279;47.902;12.308;2022-08-02T09:37:59;95683.28;;;23.91;55.36
69171;BME280;56279;47.902;12.308;2022-08-02T09:46:43;95672.47;;;23.91;56.10
69171;BME280;56279;47.902;12.308;2022-08-02T09:51:00;95675.06;;;24.03;55.83
69171;BME280;56279;47.902;12.308;2022-08-02T10:00:59;95675.09;;;24.22;54.98
69171;BME280;56279;47.902;12.308;2022-08-02T10:06:50;95672.63;;;24.33;54.47
69171;BME280;56279;47.902;12.308;2022-08-02T10:09:14;95662.97;;;24.32;53.32
69171;BME280;56279;47.902;12.308;2022-08-02T10:12:31;95660.19;;;24.28;54.37
69171;BME280;56279;47.902;12.308;2022-08-02T10:16:13;95664.66;;;24.40;53.91
69171;BME280;56279;47.902;12.308;2022-08-02T10:18:49;95664.50;;;24.52;53.16
69171;BME280;56279;47.902;12.308;2022-08-02T10:25:30;95663.28;;;24.88;52.39
69171;BME280;56279;47.902;12.308;2022-08-02T10:35:37;95655.84;;;25.30;51.75
69171;BME280;56279;47.902;12.308;2022-08-02T10:38:13;95651.31;;;25.34;51.70
69171;BME280;56279;47.902;12.308;2022-08-02T10:41:18;95647.44;;;25.35;51.49
69171;BME280;56279;47.902;12.308;2022-08-02T10:45:19;95645.59;;;25.39;52.76
69171;BME280;56279;47.902;12.308;2022-08-02T11:13:28;95631.59;;;25.33;53.08
69171;BME280;56279;47.902;12.308;2022-08-02T11:18:13;95626.47;;;25.51;51.33
69171;BME280;56279;47.902;12.308;2022-08-02T11:23:44;95630.78;;;25.56;51.17
69171;BME280;56279;47.902;12.308;2022-08-02T11:32:46;95622.44;;;25.64;51.37
69171;BME280;56279;47.902;12.308;2022-08-02T11:35:21;95630.34;;;25.76;51.12
69171;BME280;56279;47.902;12.308;2022-08-02T11:37:48;95628.50;;;25.84;50.32
69171;BME280;56279;47.902;12.308;2022-08-02T11:39:50;95623.06;;;25.84;49.52
69171;BME280;56279;47.902;12.308;2022-08-02T11:46:32;95618.03;;;25.82;50.78
69171;BME280;56279;47.902;12.308;2022-08-02T12:31:08;95583.16;;;26.37;48.18
69171;BME280;56279;47.902;12.308;2022-08-02T13:23:48;95564.72;;;27.40;45.89
69171;BME280;56279;47.902;12.308;2022-08-02T14:12:51;95529.50;;;26.90;44.62
69171;BME280;56279;47.902;12.308;2022-08-02T14:27:26;95520.78;;;27.17;44.85
69171;BME280;56279;47.902;12.308;2022-08-02T14:30:50;95518.44;;;27.12;45.52
69171;BME280;56279;47.902;12.308;2022-08-02T14:33:19;95518.47;;;27.19;46.17
69171;BME280;56279;47.902;12.308;2022-08-02T14:35:29;95519.44;;;27.45;46.89
69171;BME280;56279;47.902;12.308;2022-08-02T14:38:06;95520.28;;;27.59;46.56
69171;BME280;56279;47.902;12.308;2022-08-02T15:17:54;95510.47;;;29.43;40.87
69171;BME280;56279;47.902;12.308;2022-08-02T15:59:06;95493.97;;;34.55;33.96
69171;BME280;56279;47.902;12.308;2022-08-02T19:24:46;95514.19;;;22.84;57.93
69171;BME280;56279;47.902;12.308;2022-08-02T19:26:53;95515.22;;;22.79;58.12
69171;BME280;56279;47.902;12.308;2022-08-02T19:29:01;95508.63;;;22.77;58.66
69171;BME280;56279;47.902;12.308;2022-08-02T19:31:03;95514.69;;;22.74;58.64
69171;BME280;56279;47.902;12.308;2022-08-02T19:33:34;95516.91;;;22.68;58.33
69171;BME280;56279;47.902;12.308;2022-08-02T19:35:36;95511.09;;;22.66;58.71
69171;BME280;56279;47.902;12.308;2022-08-02T19:37:40;95512.09;;;22.61;58.79
69171;BME280;56279;47.902;12.308;2022-08-02T19:39:50;95521.97;;;22.57;59.05
69171;BME280;56279;47.902;12.308;2022-08-02T19:44:48;95517.91;;;22.48;59.34
69171;BME280;56279;47.902;12.308;2022-08-02T19:46:55;95516.25;;;22.43;59.33
69171;BME280;56279;47.902;12.308;2022-08-02T19:49:00;95519.66;;;22.40;59.42
69171;BME280;56279;47.902;12.308;2022-08-02T19:51:03;95513.38;;;22.36;59.69
69171;BME280;56279;47.902;12.308;2022-08-02T19:53:07;95512.16;;;22.34;59.79
69171;BME280;56279;47.902;12.308;2022-08-02T19:55:10;95519.38;;;22.30;59.58
69171;BME280;56279;47.902;12.308;2022-08-02T19:57:23;95519.63;;;22.25;59.71
69171;BME280;56279;47.902;12.308;2022-08-02T19:59:27;95515.72;;;22.22;59.73
69171;BME280;56279;47.902;12.308;2022-08-02T20:02:13;95517.53;;;22.18;59.75
69171;BME280;56279;47.902;12.308;2022-08-02T20:04:16;95512.84;;;22.15;59.83
69171;BME280;56279;47.902;12.308;2022-08-02T20:06:18;95515.88;;;22.14;59.68
69171;BME280;56279;47.902;12.308;2022-08-02T20:08:25;95509.66;;;22.10;59.60
69171;BME280;56279;47.902;12.308;2022-08-02T20:10:38;95509.22;;;22.08;59.62
69171;BME280;56279;47.902;12.308;2022-08-02T20:12:48;95513.00;;;22.07;59.80
69171;BME280;56279;47.902;12.308;2022-08-02T20:14:50;95516.38;;;22.03;59.66
69171;BME280;56279;47.902;12.308;2022-08-02T20:16:54;95520.22;;;22.02;59.46
69171;BME280;56279;47.902;12.308;2022-08-02T20:18:56;95513.25;;;22.01;59.09
69171;BME280;56279;47.902;12.308;2022-08-02T20:20:57;95509.47;;;22.02;59.43
69171;BME280;56279;47.902;12.308;2022-08-02T20:22:59;95507.56;;;22.03;58.97
69171;BME280;56279;47.902;12.308;2022-08-02T20:25:16;95505.53;;;22.00;59.50
69171;BME280;56279;47.902;12.308;2022-08-02T20:27:19;95507.81;;;21.98;59.12
69171;BME280;56279;47.902;12.308;2022-08-02T20:29:21;95512.75;;;21.96;59.51
69171;BME280;56279;47.902;12.308;2022-08-02T20:31:22;95509.94;;;21.92;59.45
69171;BME280;56279;47.902;12.308;2022-08-02T20:33:24;95506.81;;;21.90;59.76
69171;BME280;56279;47.902;12.308;2022-08-02T20:35:25;95510.19;;;21.87;59.92
69171;BME280;56279;47.902;12.308;2022-08-02T20:37:27;95508.19;;;21.84;60.20
69171;BME280;56279;47.902;12.308;2022-08-02T20:39:29;95502.34;;;21.82;60.49
69171;BME280;56279;47.902;12.308;2022-08-02T20:41:30;95508.44;;;21.79;60.86
69171;BME280;56279;47.902;12.308;2022-08-02T20:43:32;95508.31;;;21.76;61.16
69171;BME280;56279;47.902;12.308;2022-08-02T20:45:33;95511.69;;;21.73;61.02
69171;BME280;56279;47.902;12.308;2022-08-02T20:47:35;95509.69;;;21.70;61.43
69171;BME280;56279;47.902;12.308;2022-08-02T20:49:36;95510.72;;;21.65;61.60
69171;BME280;56279;47.902;12.308;2022-08-02T20:52:00;95508.28;;;21.60;61.38
69171;BME280;56279;47.902;12.308;2022-08-02T20:54:01;95508.94;;;21.57;61.52
69171;BME280;56279;47.902;12.308;2022-08-02T20:56:03;95507.28;;;21.53;61.99
69171;BME280;56279;47.902;12.308;2022-08-02T20:58:04;95514.91;;;21.51;61.99
69171;BME280;56279;47.902;12.308;2022-08-02T21:00:06;95511.78;;;21.49;61.82
69171;BME280;56279;47.902;12.308;2022-08-02T21:02:08;95511.34;;;21.47;61.96
69171;BME280;56279;47.902;12.308;2022-08-02T21:04:09;95510.13;;;21.44;62.32
69171;BME280;56279;47.902;12.308;2022-08-02T21:06:11;95510.78;;;21.41;62.46
69171;BME280;56279;47.902;12.308;2022-08-02T21:08:12;95508.78;;;21.38;62.53
69171;BME280;56279;47.902;12.308;2022-08-02T21:10:14;95512.50;;;21.33;62.71
69171;BME280;56279;47.902;12.308;2022-08-02T21:12:15;95509.72;;;21.30;63.79
69171;BME280;56279;47.902;12.308;2022-08-02T21:14:16;95513.06;;;21.27;63.68
69171;BME280;56279;47.902;12.308;2022-08-02T21:16:18;95507.63;;;21.23;63.42
69171;BME280;56279;47.902;12.308;2022-08-02T21:18:19;95505.25;;;21.22;63.81
69171;BME280;56279;47.902;12.308;2022-08-02T21:20:21;95511.75;;;21.21;63.58
69171;BME280;56279;47.902;12.308;2022-08-02T21:22:23;95505.47;;;21.17;63.43
69171;BME280;56279;47.902;12.308;2022-08-02T21:24:24;95509.63;;;21.14;63.18
69171;BME280;56279;47.902;12.308;2022-08-02T21:26:26;95499.22;;;21.13;63.73
69171;BME280;56279;47.902;12.308;2022-08-02T21:28:27;95512.56;;;21.09;64.06
69171;BME280;56279;47.902;12.308;2022-08-02T21:30:28;95506.75;;;21.07;63.53
69171;BME280;56279;47.902;12.308;2022-08-02T21:32:30;95504.75;;;21.04;63.56
69171;BME280;56279;47.902;12.308;2022-08-02T21:34:34;95507.28;;;21.01;63.50
69171;BME280;56279;47.902;12.308;2022-08-02T21:36:36;95502.59;;;20.98;63.81
69171;BME280;56279;47.902;12.308;2022-08-02T21:38:37;95505.16;;;20.94;64.35
69171;BME280;56279;47.902;12.308;2022-08-02T21:40:38;95505.81;;;20.91;64.69
69171;BME280;56279;47.902;12.308;2022-08-02T21:42:40;95501.47;;;20.87;64.94
69171;BME280;56279;47.902;12.308;2022-08-02T21:44:41;95505.97;;;20.83;65.62
69171;BME280;56279;47.902;12.308;2022-08-02T21:46:47;95502.72;;;20.77;65.77
69171;BME280;56279;47.902;12.308;2022-08-02T21:48:49;95503.41;;;20.74;65.97
69171;BME280;56279;47.902;12.308;2022-08-02T21:50:50;95502.97;;;20.72;66.26